sensor_id;sensor_type;location;lat;lon;timestamp;P1;durP1;ratioP1;P2;durP2;ratioP2
33954;SDS011;20233;50.804;7.126;2022-08-21T00:01:12;7.57;;;4.57;;
33954;SDS011;20233;50.804;7.126;2022-08-21T00:03:41;10.95;;;5.05;;
33954;SDS011;20233;50.804;7.126;2022-08-21T00:06:06;9.02;;;5.40;;
33954;SDS011;20233;50.804;7.126;2022-08-21T00:08:32;10.75;;;5.45;;
33954;SDS011;20233;50.804;7.126;2022-08-21T00:10:58;8.60;;;4.70;;
33954;SDS011;20233;50.804;7.126;2022-08-21T00:13:24;8.98;;;5.03;;
33954;SDS011;20233;50.804;7.126;2022-08-21T00:15:50;11.45;;;4.43;;
33954;SDS011;20233;50.804;7.126;2022-08-21T00:18:16;7.00;;;5.10;;
33954;SDS011;20233;50.804;7.126;2022-08-21T00:20:43;10.38;;;4.85;;
33954;SDS011;20233;50.804;7.126;2022-08-21T00:23:10;7.63;;;4.97;;
33954;SDS011;20233;50.804;7.126;2022-08-21T00:25:37;10.60;;;5.28;;
33954;SDS011;20233;50.804;7.126;2022-08-21T00:28:03;11.85;;;5.25;;
33954;SDS011;20233;50.804;7.126;2022-08-21T00:30:29;8.30;;;5.80;;
33954;SDS011;20233;50.804;7.126;2022-08-21T00:32:55;11.73;;;6.13;;
33954;SDS011;20233;50.804;7.126;2022-08-21T00:35:23;8.88;;;5.10;;
33954;SDS011;20233;50.804;7.126;2022-08-21T00:40:19;8.75;;;4.72;;
33954;SDS011;20233;50.804;7.126;2022-08-21T00:42:48;9.15;;;4.65;;
33954;SDS011;20233;50.804;7.126;2022-08-21T00:45:15;9.45;;;5.18;;
33954;SDS011;20233;50.804;7.126;2022-08-21T00:47:40;8.50;;;5.63;;
33954;SDS011;20233;50.804;7.126;2022-08-21T00:50:06;7.57;;;5.18;;
33954;SDS011;20233;50.804;7.126;2022-08-21T00:52:34;12.65;;;5.68;;
33954;SDS011;20233;50.804;7.126;2022-08-21T00:55:02;8.65;;;5.45;;
33954;SDS011;20233;50.804;7.126;2022-08-21T00:57:31;10.68;;;5.03;;
33954;SDS011;20233;50.804;7.126;2022-08-21T01:00:04;11.18;;;5.93;;
33954;SDS011;20233;50.804;7.126;2022-08-21T01:02:32;13.60;;;6.05;;
33954;SDS011;20233;50.804;7.126;2022-08-21T01:04:57;11.60;;;5.10;;
33954;SDS011;20233;50.804;7.126;2022-08-21T01:07:23;10.05;;;5.47;;
33954;SDS011;20233;50.804;7.126;2022-08-21T01:09:50;9.98;;;5.05;;
33954;SDS011;20233;50.804;7.126;2022-08-21T01:12:16;7.03;;;4.88;;
33954;SDS011;20233;50.804;7.126;2022-08-21T01:14:42;8.93;;;5.47;;
33954;SDS011;20233;50.804;7.126;2022-08-21T01:17:10;10.52;;;5.38;;
33954;SDS011;20233;50.804;7.126;2022-08-21T01:19:37;8.07;;;5.32;;
33954;SDS011;20233;50.804;7.126;2022-08-21T01:22:03;9.48;;;4.95;;
33954;SDS011;20233;50.804;7.126;2022-08-21T01:24:29;8.77;;;5.20;;
33954;SDS011;20233;50.804;7.126;2022-08-21T01:26:56;9.00;;;5.38;;
33954;SDS011;20233;50.804;7.126;2022-08-21T01:29:28;11.85;;;5.45;;
33954;SDS011;20233;50.804;7.126;2022-08-21T01:34:31;8.57;;;5.13;;
33954;SDS011;20233;50.804;7.126;2022-08-21T01:36:58;10.32;;;5.32;;
33954;SDS011;20233;50.804;7.126;2022-08-21T01:39:24;10.02;;;5.35;;
33954;SDS011;20233;50.804;7.126;2022-08-21T01:41:49;8.73;;;5.60;;
33954;SDS011;20233;50.804;7.126;2022-08-21T01:44:15;9.55;;;4.95;;
33954;SDS011;20233;50.804;7.126;2022-08-21T01:46:40;10.32;;;4.93;;
33954;SDS011;20233;50.804;7.126;2022-08-21T01:49:06;8.13;;;4.95;;
33954;SDS011;20233;50.804;7.126;2022-08-21T01:51:32;9.77;;;5.32;;
33954;SDS011;20233;50.804;7.126;2022-08-21T01:53:58;7.50;;;5.30;;
33954;SDS011;20233;50.804;7.126;2022-08-21T01:56:23;9.60;;;5.18;;
33954;SDS011;20233;50.804;7.126;2022-08-21T01:58:50;11.80;;;5.35;;
33954;SDS011;20233;50.804;7.126;2022-08-21T02:01:16;10.27;;;6.10;;
33954;SDS011;20233;50.804;7.126;2022-08-21T02:03:42;10.02;;;5.82;;
33954;SDS011;20233;50.804;7.126;2022-08-21T02:06:11;7.63;;;5.03;;
33954;SDS011;20233;50.804;7.126;2022-08-21T02:08:39;6.57;;;4.80;;
33954;SDS011;20233;50.804;7.126;2022-08-21T02:11:05;8.82;;;5.03;;
33954;SDS011;20233;50.804;7.126;2022-08-21T02:13:31;11.57;;;5.97;;
33954;SDS011;20233;50.804;7.126;2022-08-21T02:15:57;9.23;;;5.68;;
33954;SDS011;20233;50.804;7.126;2022-08-21T02:18:22;10.82;;;5.55;;
33954;SDS011;20233;50.804;7.126;2022-08-21T02:20:48;8.85;;;5.40;;
33954;SDS011;20233;50.804;7.126;2022-08-21T02:23:14;9.48;;;5.22;;
33954;SDS011;20233;50.804;7.126;2022-08-21T02:25:41;8.40;;;4.95;;
33954;SDS011;20233;50.804;7.126;2022-08-21T02:28:11;8.00;;;4.75;;
33954;SDS011;20233;50.804;7.126;2022-08-21T02:30:40;8.50;;;5.65;;
33954;SDS011;20233;50.804;7.126;2022-08-21T02:33:09;10.20;;;5.20;;
33954;SDS011;20233;50.804;7.126;2022-08-21T02:35:36;7.40;;;4.78;;
33954;SDS011;20233;50.804;7.126;2022-08-21T02:38:07;6.47;;;4.97;;
33954;SDS011;20233;50.804;7.126;2022-08-21T02:40:35;8.02;;;4.40;;
33954;SDS011;20233;50.804;7.126;2022-08-21T02:43:03;10.02;;;4.80;;
33954;SDS011;20233;50.804;7.126;2022-08-21T02:45:30;7.57;;;4.90;;
33954;SDS011;20233;50.804;7.126;2022-08-21T02:48:01;8.95;;;5.10;;
33954;SDS011;20233;50.804;7.126;2022-08-21T02:50:30;9.63;;;5.07;;
33954;SDS011;20233;50.804;7.126;2022-08-21T02:52:58;10.00;;;5.63;;
33954;SDS011;20233;50.804;7.126;2022-08-21T02:55:25;6.97;;;4.95;;
33954;SDS011;20233;50.804;7.126;2022-08-21T02:57:53;9.90;;;5.30;;
33954;SDS011;20233;50.804;7.126;2022-08-21T03:00:20;11.93;;;4.47;;
33954;SDS011;20233;50.804;7.126;2022-08-21T03:02:47;10.77;;;5.10;;
33954;SDS011;20233;50.804;7.126;2022-08-21T03:05:13;6.20;;;4.50;;
33954;SDS011;20233;50.804;7.126;2022-08-21T03:07:40;9.75;;;5.53;;
33954;SDS011;20233;50.804;7.126;2022-08-21T03:10:06;9.52;;;5.05;;
33954;SDS011;20233;50.804;7.126;2022-08-21T03:12:32;8.50;;;5.07;;
33954;SDS011;20233;50.804;7.126;2022-08-21T03:15:00;9.45;;;5.45;;
33954;SDS011;20233;50.804;7.126;2022-08-21T03:17:27;7.47;;;4.80;;
33954;SDS011;20233;50.804;7.126;2022-08-21T03:19:53;8.13;;;5.18;;
33954;SDS011;20233;50.804;7.126;2022-08-21T03:22:18;9.30;;;5.35;;
33954;SDS011;20233;50.804;7.126;2022-08-21T03:24:44;8.07;;;4.75;;
33954;SDS011;20233;50.804;7.126;2022-08-21T03:27:10;7.93;;;4.63;;
33954;SDS011;20233;50.804;7.126;2022-08-21T03:29:37;7.95;;;5.18;;
33954;SDS011;20233;50.804;7.126;2022-08-21T03:32:03;8.77;;;5.07;;
33954;SDS011;20233;50.804;7.126;2022-08-21T03:34:29;9.80;;;5.32;;
33954;SDS011;20233;50.804;7.126;2022-08-21T03:36:54;11.07;;;5.22;;
33954;SDS011;20233;50.804;7.126;2022-08-21T03:39:20;9.98;;;5.57;;
33954;SDS011;20233;50.804;7.126;2022-08-21T03:41:45;11.02;;;5.68;;
33954;SDS011;20233;50.804;7.126;2022-08-21T03:44:12;9.48;;;5.22;;
33954;SDS011;20233;50.804;7.126;2022-08-21T03:46:38;8.85;;;4.57;;
33954;SDS011;20233;50.804;7.126;2022-08-21T03:49:04;9.07;;;5.13;;
33954;SDS011;20233;50.804;7.126;2022-08-21T03:51:30;9.43;;;5.05;;
33954;SDS011;20233;50.804;7.126;2022-08-21T03:53:58;11.80;;;5.55;;
33954;SDS011;20233;50.804;7.126;2022-08-21T03:56:24;9.95;;;5.50;;
33954;SDS011;20233;50.804;7.126;2022-08-21T03:58:49;11.68;;;5.72;;
33954;SDS011;20233;50.804;7.126;2022-08-21T04:01:15;10.38;;;5.15;;
33954;SDS011;20233;50.804;7.126;2022-08-21T04:03:41;10.20;;;5.55;;
33954;SDS011;20233;50.804;7.126;2022-08-21T04:06:06;8.93;;;6.03;;
33954;SDS011;20233;50.804;7.126;2022-08-21T04:08:32;11.05;;;5.93;;
33954;SDS011;20233;50.804;7.126;2022-08-21T04:10:58;9.40;;;5.32;;
33954;SDS011;20233;50.804;7.126;2022-08-21T04:13:24;8.82;;;5.50;;
33954;SDS011;20233;50.804;7.126;2022-08-21T04:15:52;8.80;;;5.30;;
33954;SDS011;20233;50.804;7.126;2022-08-21T04:18:19;9.98;;;5.18;;
33954;SDS011;20233;50.804;7.126;2022-08-21T04:20:45;8.50;;;5.63;;
33954;SDS011;20233;50.804;7.126;2022-08-21T04:23:13;10.68;;;5.97;;
33954;SDS011;20233;50.804;7.126;2022-08-21T04:25:38;11.82;;;5.90;;
33954;SDS011;20233;50.804;7.126;2022-08-21T04:28:04;10.68;;;5.72;;
33954;SDS011;20233;50.804;7.126;2022-08-21T04:30:29;7.80;;;5.22;;
33954;SDS011;20233;50.804;7.126;2022-08-21T04:32:56;12.43;;;5.80;;
33954;SDS011;20233;50.804;7.126;2022-08-21T04:35:23;12.85;;;6.13;;
33954;SDS011;20233;50.804;7.126;2022-08-21T04:37:50;8.43;;;5.60;;
33954;SDS011;20233;50.804;7.126;2022-08-21T04:40:16;10.93;;;5.97;;
33954;SDS011;20233;50.804;7.126;2022-08-21T04:42:45;12.05;;;6.78;;
33954;SDS011;20233;50.804;7.126;2022-08-21T04:45:18;12.40;;;5.28;;
33954;SDS011;20233;50.804;7.126;2022-08-21T04:47:53;12.45;;;5.93;;
33954;SDS011;20233;50.804;7.126;2022-08-21T04:50:24;10.00;;;6.30;;
33954;SDS011;20233;50.804;7.126;2022-08-21T04:52:54;11.32;;;5.80;;
33954;SDS011;20233;50.804;7.126;2022-08-21T04:55:20;10.20;;;6.43;;
33954;SDS011;20233;50.804;7.126;2022-08-21T04:57:47;9.63;;;6.20;;
33954;SDS011;20233;50.804;7.126;2022-08-21T05:00:16;9.00;;;5.68;;
33954;SDS011;20233;50.804;7.126;2022-08-21T05:02:43;10.15;;;5.60;;
33954;SDS011;20233;50.804;7.126;2022-08-21T05:05:10;10.75;;;6.40;;
33954;SDS011;20233;50.804;7.126;2022-08-21T05:07:36;12.30;;;6.00;;
33954;SDS011;20233;50.804;7.126;2022-08-21T05:10:02;14.45;;;6.93;;
33954;SDS011;20233;50.804;7.126;2022-08-21T05:12:28;11.90;;;6.63;;
33954;SDS011;20233;50.804;7.126;2022-08-21T05:14:56;11.73;;;5.95;;
33954;SDS011;20233;50.804;7.126;2022-08-21T05:17:22;12.45;;;6.95;;
33954;SDS011;20233;50.804;7.126;2022-08-21T05:19:48;13.75;;;7.80;;
33954;SDS011;20233;50.804;7.126;2022-08-21T05:22:20;12.38;;;6.55;;
33954;SDS011;20233;50.804;7.126;2022-08-21T05:24:47;11.57;;;6.88;;
33954;SDS011;20233;50.804;7.126;2022-08-21T05:27:12;10.80;;;6.07;;
33954;SDS011;20233;50.804;7.126;2022-08-21T05:29:38;12.35;;;6.60;;
33954;SDS011;20233;50.804;7.126;2022-08-21T05:32:08;12.13;;;6.93;;
33954;SDS011;20233;50.804;7.126;2022-08-21T05:34:35;11.52;;;7.32;;
33954;SDS011;20233;50.804;7.126;2022-08-21T05:37:00;15.55;;;7.28;;
33954;SDS011;20233;50.804;7.126;2022-08-21T05:39:26;10.95;;;7.50;;
33954;SDS011;20233;50.804;7.126;2022-08-21T05:41:52;11.98;;;7.20;;
33954;SDS011;20233;50.804;7.126;2022-08-21T05:44:17;14.43;;;7.57;;
33954;SDS011;20233;50.804;7.126;2022-08-21T05:46:43;13.65;;;7.10;;
33954;SDS011;20233;50.804;7.126;2022-08-21T05:49:08;12.05;;;6.90;;
33954;SDS011;20233;50.804;7.126;2022-08-21T05:51:35;10.23;;;7.20;;
33954;SDS011;20233;50.804;7.126;2022-08-21T05:54:01;13.88;;;6.70;;
33954;SDS011;20233;50.804;7.126;2022-08-21T05:56:27;14.50;;;7.75;;
33954;SDS011;20233;50.804;7.126;2022-08-21T05:58:52;11.48;;;6.68;;
33954;SDS011;20233;50.804;7.126;2022-08-21T06:01:18;11.57;;;7.03;;
33954;SDS011;20233;50.804;7.126;2022-08-21T06:03:43;9.88;;;6.75;;
33954;SDS011;20233;50.804;7.126;2022-08-21T06:06:09;13.48;;;7.05;;
33954;SDS011;20233;50.804;7.126;2022-08-21T06:08:35;13.02;;;7.10;;
33954;SDS011;20233;50.804;7.126;2022-08-21T06:11:03;9.50;;;7.25;;
33954;SDS011;20233;50.804;7.126;2022-08-21T06:13:29;13.05;;;7.60;;
33954;SDS011;20233;50.804;7.126;2022-08-21T06:16:11;12.68;;;7.75;;
33954;SDS011;20233;50.804;7.126;2022-08-21T06:18:39;13.50;;;7.28;;
33954;SDS011;20233;50.804;7.126;2022-08-21T06:21:05;12.70;;;6.88;;
33954;SDS011;20233;50.804;7.126;2022-08-21T06:23:31;13.57;;;6.65;;
33954;SDS011;20233;50.804;7.126;2022-08-21T06:25:59;11.40;;;7.03;;
33954;SDS011;20233;50.804;7.126;2022-08-21T06:28:25;13.57;;;6.13;;
33954;SDS011;20233;50.804;7.126;2022-08-21T06:30:50;11.57;;;6.63;;
33954;SDS011;20233;50.804;7.126;2022-08-21T06:33:16;9.30;;;6.80;;
33954;SDS011;20233;50.804;7.126;2022-08-21T06:35:42;16.10;;;7.13;;
33954;SDS011;20233;50.804;7.126;2022-08-21T06:38:07;11.50;;;7.18;;
33954;SDS011;20233;50.804;7.126;2022-08-21T06:40:33;9.35;;;6.45;;
33954;SDS011;20233;50.804;7.126;2022-08-21T06:43:04;10.65;;;6.68;;
33954;SDS011;20233;50.804;7.126;2022-08-21T06:45:32;10.05;;;5.93;;
33954;SDS011;20233;50.804;7.126;2022-08-21T06:47:57;10.23;;;6.40;;
33954;SDS011;20233;50.804;7.126;2022-08-21T06:50:23;13.27;;;6.90;;
33954;SDS011;20233;50.804;7.126;2022-08-21T06:52:49;11.07;;;7.25;;
33954;SDS011;20233;50.804;7.126;2022-08-21T06:55:14;11.10;;;6.82;;
33954;SDS011;20233;50.804;7.126;2022-08-21T06:57:40;11.63;;;6.13;;
33954;SDS011;20233;50.804;7.126;2022-08-21T07:00:06;11.50;;;6.93;;
33954;SDS011;20233;50.804;7.126;2022-08-21T07:02:33;13.18;;;6.82;;
33954;SDS011;20233;50.804;7.126;2022-08-21T07:04:59;14.77;;;7.68;;
33954;SDS011;20233;50.804;7.126;2022-08-21T07:07:24;11.90;;;5.35;;
33954;SDS011;20233;50.804;7.126;2022-08-21T07:09:50;13.50;;;6.82;;
33954;SDS011;20233;50.804;7.126;2022-08-21T07:12:15;10.52;;;7.00;;
33954;SDS011;20233;50.804;7.126;2022-08-21T07:14:41;11.10;;;6.22;;
33954;SDS011;20233;50.804;7.126;2022-08-21T07:17:07;12.35;;;6.32;;
33954;SDS011;20233;50.804;7.126;2022-08-21T07:19:33;9.90;;;5.28;;
33954;SDS011;20233;50.804;7.126;2022-08-21T07:21:59;8.75;;;4.90;;
33954;SDS011;20233;50.804;7.126;2022-08-21T07:24:26;10.52;;;5.03;;
33954;SDS011;20233;50.804;7.126;2022-08-21T07:26:52;8.50;;;5.20;;
33954;SDS011;20233;50.804;7.126;2022-08-21T07:29:18;12.02;;;5.60;;
33954;SDS011;20233;50.804;7.126;2022-08-21T07:31:43;8.40;;;4.30;;
33954;SDS011;20233;50.804;7.126;2022-08-21T07:34:09;11.60;;;4.35;;
33954;SDS011;20233;50.804;7.126;2022-08-21T07:36:35;8.18;;;4.30;;
33954;SDS011;20233;50.804;7.126;2022-08-21T07:39:01;7.50;;;4.03;;
33954;SDS011;20233;50.804;7.126;2022-08-21T07:41:28;12.35;;;5.18;;
33954;SDS011;20233;50.804;7.126;2022-08-21T07:43:54;8.68;;;4.47;;
33954;SDS011;20233;50.804;7.126;2022-08-21T07:46:24;11.27;;;4.57;;
33954;SDS011;20233;50.804;7.126;2022-08-21T07:48:50;10.35;;;4.30;;
33954;SDS011;20233;50.804;7.126;2022-08-21T07:51:17;9.60;;;4.55;;
33954;SDS011;20233;50.804;7.126;2022-08-21T07:53:48;12.55;;;4.43;;
33954;SDS011;20233;50.804;7.126;2022-08-21T07:56:14;10.20;;;4.55;;
33954;SDS011;20233;50.804;7.126;2022-08-21T07:58:40;12.90;;;4.70;;
33954;SDS011;20233;50.804;7.126;2022-08-21T08:01:06;8.38;;;4.05;;
33954;SDS011;20233;50.804;7.126;2022-08-21T08:03:32;9.13;;;4.03;;
33954;SDS011;20233;50.804;7.126;2022-08-21T08:05:58;12.65;;;5.05;;
33954;SDS011;20233;50.804;7.126;2022-08-21T08:08:24;10.02;;;4.10;;
33954;SDS011;20233;50.804;7.126;2022-08-21T08:10:50;8.23;;;3.72;;
33954;SDS011;20233;50.804;7.126;2022-08-21T08:13:17;8.15;;;3.20;;
33954;SDS011;20233;50.804;7.126;2022-08-21T08:15:42;9.25;;;2.53;;
33954;SDS011;20233;50.804;7.126;2022-08-21T08:18:08;8.90;;;1.98;;
33954;SDS011;20233;50.804;7.126;2022-08-21T08:20:33;7.35;;;2.85;;
33954;SDS011;20233;50.804;7.126;2022-08-21T08:22:59;5.93;;;2.67;;
33954;SDS011;20233;50.804;7.126;2022-08-21T08:25:25;9.57;;;3.08;;
33954;SDS011;20233;50.804;7.126;2022-08-21T08:27:51;7.80;;;2.40;;
33954;SDS011;20233;50.804;7.126;2022-08-21T08:30:17;8.18;;;2.70;;
33954;SDS011;20233;50.804;7.126;2022-08-21T08:32:44;5.93;;;2.40;;
33954;SDS011;20233;50.804;7.126;2022-08-21T08:35:10;7.75;;;2.90;;
33954;SDS011;20233;50.804;7.126;2022-08-21T08:37:37;7.05;;;2.30;;
33954;SDS011;20233;50.804;7.126;2022-08-21T08:40:05;7.30;;;2.80;;
33954;SDS011;20233;50.804;7.126;2022-08-21T08:42:33;8.77;;;2.70;;
33954;SDS011;20233;50.804;7.126;2022-08-21T08:45:12;7.82;;;2.60;;
33954;SDS011;20233;50.804;7.126;2022-08-21T08:47:44;4.63;;;2.00;;
33954;SDS011;20233;50.804;7.126;2022-08-21T08:50:41;7.60;;;2.17;;
33954;SDS011;20233;50.804;7.126;2022-08-21T08:53:13;7.72;;;2.03;;
33954;SDS011;20233;50.804;7.126;2022-08-21T08:55:45;8.63;;;2.55;;
33954;SDS011;20233;50.804;7.126;2022-08-21T08:58:34;8.63;;;2.45;;
33954;SDS011;20233;50.804;7.126;2022-08-21T09:01:04;7.70;;;2.38;;
33954;SDS011;20233;50.804;7.126;2022-08-21T09:03:35;7.30;;;1.70;;
33954;SDS011;20233;50.804;7.126;2022-08-21T09:06:12;7.53;;;1.65;;
33954;SDS011;20233;50.804;7.126;2022-08-21T09:09:05;10.45;;;2.58;;
33954;SDS011;20233;50.804;7.126;2022-08-21T09:14:37;7.88;;;1.98;;
33954;SDS011;20233;50.804;7.126;2022-08-21T09:17:35;6.20;;;1.20;;
33954;SDS011;20233;50.804;7.126;2022-08-21T09:26:04;6.82;;;1.23;;
33954;SDS011;20233;50.804;7.126;2022-08-21T09:28:36;5.68;;;1.00;;
33954;SDS011;20233;50.804;7.126;2022-08-21T09:31:05;5.65;;;1.27;;
33954;SDS011;20233;50.804;7.126;2022-08-21T09:33:33;6.30;;;0.88;;
33954;SDS011;20233;50.804;7.126;2022-08-21T09:35:59;4.28;;;0.85;;
33954;SDS011;20233;50.804;7.126;2022-08-21T09:38:28;7.45;;;1.15;;
33954;SDS011;20233;50.804;7.126;2022-08-21T09:41:01;4.70;;;0.70;;
33954;SDS011;20233;50.804;7.126;2022-08-21T09:43:29;6.28;;;1.38;;
33954;SDS011;20233;50.804;7.126;2022-08-21T09:46:03;5.35;;;1.13;;
33954;SDS011;20233;50.804;7.126;2022-08-21T09:48:29;6.47;;;1.05;;
33954;SDS011;20233;50.804;7.126;2022-08-21T09:51:06;8.38;;;1.40;;
33954;SDS011;20233;50.804;7.126;2022-08-21T09:53:37;6.45;;;1.17;;
33954;SDS011;20233;50.804;7.126;2022-08-21T09:56:16;7.47;;;1.35;;
33954;SDS011;20233;50.804;7.126;2022-08-21T10:02:03;4.72;;;1.00;;
33954;SDS011;20233;50.804;7.126;2022-08-21T10:04:51;5.93;;;0.90;;
33954;SDS011;20233;50.804;7.126;2022-08-21T10:07:20;7.53;;;1.70;;
33954;SDS011;20233;50.804;7.126;2022-08-21T10:09:57;5.90;;;0.95;;
33954;SDS011;20233;50.804;7.126;2022-08-21T10:12:40;6.63;;;1.20;;
33954;SDS011;20233;50.804;7.126;2022-08-21T10:15:20;4.65;;;0.80;;
33954;SDS011;20233;50.804;7.126;2022-08-21T10:18:10;6.65;;;0.90;;
33954;SDS011;20233;50.804;7.126;2022-08-21T10:21:51;5.25;;;0.93;;
33954;SDS011;20233;50.804;7.126;2022-08-21T10:29:01;8.10;;;0.70;;
33954;SDS011;20233;50.804;7.126;2022-08-21T10:31:39;3.35;;;0.70;;
33954;SDS011;20233;50.804;7.126;2022-08-21T10:37:31;4.57;;;0.50;;
33954;SDS011;20233;50.804;7.126;2022-08-21T10:40:07;6.43;;;0.47;;
33954;SDS011;20233;50.804;7.126;2022-08-21T10:45:26;4.10;;;1.05;;
33954;SDS011;20233;50.804;7.126;2022-08-21T10:48:35;2.60;;;0.70;;
33954;SDS011;20233;50.804;7.126;2022-08-21T10:51:06;4.10;;;0.60;;
33954;SDS011;20233;50.804;7.126;2022-08-21T10:53:40;5.40;;;0.60;;
33954;SDS011;20233;50.804;7.126;2022-08-21T10:56:17;2.15;;;0.50;;
33954;SDS011;20233;50.804;7.126;2022-08-21T11:02:03;4.82;;;0.63;;
33954;SDS011;20233;50.804;7.126;2022-08-21T11:07:38;4.38;;;0.63;;
33954;SDS011;20233;50.804;7.126;2022-08-21T11:10:15;4.38;;;0.57;;
33954;SDS011;20233;50.804;7.126;2022-08-21T11:12:50;7.05;;;0.85;;
33954;SDS011;20233;50.804;7.126;2022-08-21T11:15:33;5.05;;;0.40;;
33954;SDS011;20233;50.804;7.126;2022-08-21T11:21:01;6.22;;;1.08;;
33954;SDS011;20233;50.804;7.126;2022-08-21T11:23:47;4.07;;;0.60;;
33954;SDS011;20233;50.804;7.126;2022-08-21T11:26:31;4.68;;;0.65;;
33954;SDS011;20233;50.804;7.126;2022-08-21T11:29:06;4.32;;;0.50;;
33954;SDS011;20233;50.804;7.126;2022-08-21T11:34:24;4.65;;;0.50;;
33954;SDS011;20233;50.804;7.126;2022-08-21T11:59:52;7.53;;;0.88;;
33954;SDS011;20233;50.804;7.126;2022-08-21T12:02:45;4.22;;;0.65;;
33954;SDS011;20233;50.804;7.126;2022-08-21T12:05:37;4.13;;;0.93;;
33954;SDS011;20233;50.804;7.126;2022-08-21T12:10:40;2.70;;;0.50;;
33954;SDS011;20233;50.804;7.126;2022-08-21T12:13:20;4.30;;;0.70;;
33954;SDS011;20233;50.804;7.126;2022-08-21T12:15:51;3.70;;;0.40;;
33954;SDS011;20233;50.804;7.126;2022-08-21T12:20:59;3.78;;;0.60;;
33954;SDS011;20233;50.804;7.126;2022-08-21T12:23:30;2.97;;;0.60;;
33954;SDS011;20233;50.804;7.126;2022-08-21T12:28:38;4.00;;;0.50;;
33954;SDS011;20233;50.804;7.126;2022-08-21T12:31:15;6.85;;;0.47;;
33954;SDS011;20233;50.804;7.126;2022-08-21T12:34:01;2.92;;;0.45;;
33954;SDS011;20233;50.804;7.126;2022-08-21T12:36:41;6.45;;;1.00;;
33954;SDS011;20233;50.804;7.126;2022-08-21T12:39:12;4.45;;;0.60;;
33954;SDS011;20233;50.804;7.126;2022-08-21T12:44:15;5.03;;;0.73;;
33954;SDS011;20233;50.804;7.126;2022-08-21T12:47:12;2.60;;;0.25;;
33954;SDS011;20233;50.804;7.126;2022-08-21T12:49:52;3.83;;;0.50;;
33954;SDS011;20233;50.804;7.126;2022-08-21T12:52:23;4.05;;;0.40;;
33954;SDS011;20233;50.804;7.126;2022-08-21T12:54:52;3.75;;;0.55;;
33954;SDS011;20233;50.804;7.126;2022-08-21T12:57:20;4.53;;;0.65;;
33954;SDS011;20233;50.804;7.126;2022-08-21T12:59:51;3.25;;;0.30;;
33954;SDS011;20233;50.804;7.126;2022-08-21T13:02:18;2.78;;;0.28;;
33954;SDS011;20233;50.804;7.126;2022-08-21T13:04:48;2.47;;;0.32;;
33954;SDS011;20233;50.804;7.126;2022-08-21T13:07:15;3.22;;;0.55;;
33954;SDS011;20233;50.804;7.126;2022-08-21T13:09:48;2.70;;;0.50;;
33954;SDS011;20233;50.804;7.126;2022-08-21T13:12:19;6.97;;;0.40;;
33954;SDS011;20233;50.804;7.126;2022-08-21T13:14:46;4.18;;;0.68;;
33954;SDS011;20233;50.804;7.126;2022-08-21T13:17:18;5.75;;;0.80;;
33954;SDS011;20233;50.804;7.126;2022-08-21T13:19:59;4.45;;;0.38;;
33954;SDS011;20233;50.804;7.126;2022-08-21T13:22:27;3.92;;;0.43;;
33954;SDS011;20233;50.804;7.126;2022-08-21T13:24:53;3.15;;;0.40;;
33954;SDS011;20233;50.804;7.126;2022-08-21T13:27:21;4.40;;;0.68;;
33954;SDS011;20233;50.804;7.126;2022-08-21T13:30:07;2.72;;;0.50;;
33954;SDS011;20233;50.804;7.126;2022-08-21T13:32:43;2.78;;;0.30;;
33954;SDS011;20233;50.804;7.126;2022-08-21T13:35:24;1.95;;;0.40;;
33954;SDS011;20233;50.804;7.126;2022-08-21T13:38:01;2.75;;;0.50;;
33954;SDS011;20233;50.804;7.126;2022-08-21T13:40:32;4.13;;;0.50;;
33954;SDS011;20233;50.804;7.126;2022-08-21T13:43:14;4.10;;;0.52;;
33954;SDS011;20233;50.804;7.126;2022-08-21T13:45:44;3.45;;;0.50;;
33954;SDS011;20233;50.804;7.126;2022-08-21T13:48:14;4.45;;;0.55;;
33954;SDS011;20233;50.804;7.126;2022-08-21T13:50:40;5.53;;;0.50;;
33954;SDS011;20233;50.804;7.126;2022-08-21T13:53:07;6.13;;;0.90;;
33954;SDS011;20233;50.804;7.126;2022-08-21T13:55:59;4.00;;;0.55;;
33954;SDS011;20233;50.804;7.126;2022-08-21T13:58:27;5.00;;;0.90;;
33954;SDS011;20233;50.804;7.126;2022-08-21T14:00:55;3.03;;;0.40;;
33954;SDS011;20233;50.804;7.126;2022-08-21T14:03:29;4.45;;;0.47;;
33954;SDS011;20233;50.804;7.126;2022-08-21T14:06:02;5.63;;;0.57;;
33954;SDS011;20233;50.804;7.126;2022-08-21T14:08:50;2.38;;;0.40;;
33954;SDS011;20233;50.804;7.126;2022-08-21T14:11:19;3.25;;;0.43;;
33954;SDS011;20233;50.804;7.126;2022-08-21T14:13:48;4.15;;;0.73;;
33954;SDS011;20233;50.804;7.126;2022-08-21T14:16:22;4.55;;;0.50;;
33954;SDS011;20233;50.804;7.126;2022-08-21T14:21:36;2.50;;;0.57;;
33954;SDS011;20233;50.804;7.126;2022-08-21T14:24:13;2.33;;;0.77;;
33954;SDS011;20233;50.804;7.126;2022-08-21T14:26:51;4.15;;;0.65;;
33954;SDS011;20233;50.804;7.126;2022-08-21T14:29:21;3.58;;;0.55;;
33954;SDS011;20233;50.804;7.126;2022-08-21T14:31:53;4.63;;;0.55;;
33954;SDS011;20233;50.804;7.126;2022-08-21T14:34:21;4.00;;;0.40;;
33954;SDS011;20233;50.804;7.126;2022-08-21T14:36:49;2.28;;;0.30;;
33954;SDS011;20233;50.804;7.126;2022-08-21T14:39:15;3.70;;;0.85;;
33954;SDS011;20233;50.804;7.126;2022-08-21T14:41:41;6.15;;;0.65;;
33954;SDS011;20233;50.804;7.126;2022-08-21T14:44:08;4.38;;;0.88;;
33954;SDS011;20233;50.804;7.126;2022-08-21T14:46:34;3.33;;;0.47;;
33954;SDS011;20233;50.804;7.126;2022-08-21T14:49:02;4.80;;;0.52;;
33954;SDS011;20233;50.804;7.126;2022-08-21T14:51:28;2.90;;;0.43;;
33954;SDS011;20233;50.804;7.126;2022-08-21T14:53:54;2.67;;;0.30;;
33954;SDS011;20233;50.804;7.126;2022-08-21T14:56:20;3.97;;;0.60;;
33954;SDS011;20233;50.804;7.126;2022-08-21T14:58:47;4.18;;;0.50;;
33954;SDS011;20233;50.804;7.126;2022-08-21T15:01:14;4.10;;;0.47;;
33954;SDS011;20233;50.804;7.126;2022-08-21T15:03:42;3.25;;;0.50;;
33954;SDS011;20233;50.804;7.126;2022-08-21T15:06:08;4.32;;;0.40;;
33954;SDS011;20233;50.804;7.126;2022-08-21T15:08:34;3.40;;;0.50;;
33954;SDS011;20233;50.804;7.126;2022-08-21T15:11:01;4.97;;;0.38;;
33954;SDS011;20233;50.804;7.126;2022-08-21T15:13:28;3.05;;;0.60;;
33954;SDS011;20233;50.804;7.126;2022-08-21T15:15:55;3.22;;;0.50;;
33954;SDS011;20233;50.804;7.126;2022-08-21T15:18:24;3.65;;;0.40;;
33954;SDS011;20233;50.804;7.126;2022-08-21T15:20:51;5.00;;;0.60;;
33954;SDS011;20233;50.804;7.126;2022-08-21T15:23:17;5.25;;;0.40;;
33954;SDS011;20233;50.804;7.126;2022-08-21T15:25:45;5.45;;;0.52;;
33954;SDS011;20233;50.804;7.126;2022-08-21T15:28:13;5.90;;;0.40;;
33954;SDS011;20233;50.804;7.126;2022-08-21T15:30:40;3.58;;;0.57;;
33954;SDS011;20233;50.804;7.126;2022-08-21T15:33:06;4.45;;;0.50;;
33954;SDS011;20233;50.804;7.126;2022-08-21T15:35:33;4.95;;;0.90;;
33954;SDS011;20233;50.804;7.126;2022-08-21T15:37:59;5.93;;;0.68;;
33954;SDS011;20233;50.804;7.126;2022-08-21T15:40:25;3.53;;;0.40;;
33954;SDS011;20233;50.804;7.126;2022-08-21T15:42:52;4.28;;;0.47;;
33954;SDS011;20233;50.804;7.126;2022-08-21T15:45:24;4.05;;;0.50;;
33954;SDS011;20233;50.804;7.126;2022-08-21T15:47:50;8.00;;;0.45;;
33954;SDS011;20233;50.804;7.126;2022-08-21T15:50:16;2.85;;;0.30;;
33954;SDS011;20233;50.804;7.126;2022-08-21T15:52:43;2.92;;;0.38;;
33954;SDS011;20233;50.804;7.126;2022-08-21T15:55:09;5.93;;;0.50;;
33954;SDS011;20233;50.804;7.126;2022-08-21T15:57:36;2.20;;;0.30;;
33954;SDS011;20233;50.804;7.126;2022-08-21T16:00:06;3.40;;;0.32;;
33954;SDS011;20233;50.804;7.126;2022-08-21T16:02:38;3.20;;;0.30;;
33954;SDS011;20233;50.804;7.126;2022-08-21T16:05:07;4.07;;;0.65;;
33954;SDS011;20233;50.804;7.126;2022-08-21T16:07:35;4.13;;;0.40;;
33954;SDS011;20233;50.804;7.126;2022-08-21T16:10:00;3.17;;;0.47;;
33954;SDS011;20233;50.804;7.126;2022-08-21T16:12:29;2.65;;;0.35;;